Time,TemperatureF,DewpointF,PressureIn,WindDirection,WindDirectionDegrees,WindSpeedMPH,WindSpeedGustMPH,Humidity,HourlyPrecipIn,Conditions,Clouds,dailyrainin,SoftwareType,DateUTC
2013-11-07 00:09:00,52.7,52.0,30.05,ESE,115,0.0,1.0,98,0.00,,,0.00,weatherlink.com 1.10,2013-11-07 05:09:00,
2013-11-07 00:24:00,52.8,52.0,30.05,ESE,115,0.0,1.0,97,0.00,,,0.00,weatherlink.com 1.10,2013-11-07 05:24:00,
2013-11-07 00:39:00,53.2,53.0,30.04,SSE,166,0.0,2.0,98,0.00,,,0.00,weatherlink.com 1.10,2013-11-07 05:39:00,
2013-11-07 00:54:00,53.6,53.0,30.03,SSE,150,0.0,2.0,97,0.00,,,0.00,weatherlink.com 1.10,2013-11-07 05:54:00,
2013-11-07 01:09:00,54.0,53.0,30.02,SSE,155,0.0,0.0,97,0.00,,,0.00,weatherlink.com 1.10,2013-11-07 06:09:00,
2013-11-07 01:24:00,54.3,54.0,30.01,South,169,1.0,3.0,97,0.00,,,0.00,weatherlink.com 1.10,2013-11-07 06:24:00,
2013-11-07 01:39:00,54.5,53.0,30.00,SSE,158,0.0,3.0,96,0.00,,,0.00,weatherlink.com 1.10,2013-11-07 06:39:00,
2013-11-07 01:54:00,54.5,53.0,30.00,SE,145,0.0,2.0,95,0.00,,,0.00,weatherlink.com 1.10,2013-11-07 06:54:00,
2013-11-07 02:09:00,54.5,53.0,29.99,SSE,158,0.0,2.0,95,0.00,,,0.00,weatherlink.com 1.10,2013-11-07 07:09:00,
2013-11-07 02:24:00,54.6,53.0,29.98,SSE,150,0.0,2.0,95,0.00,,,0.00,weatherlink.com 1.10,2013-11-07 07:24:00,
2013-11-07 02:39:00,55.3,54.0,29.97,SSE,158,0.0,5.0,94,0.00,,,0.00,weatherlink.com 1.10,2013-11-07 07:39:00,
2013-11-07 02:55:00,55.5,54.0,29.96,SW,235,1.0,2.0,93,0.00,,,0.00,weatherlink.com 1.10,2013-11-07 07:55:00,
2013-11-07 03:10:00,55.7,54.0,29.95,SSE,162,0.0,2.0,93,0.00,,,0.00,weatherlink.com 1.10,2013-11-07 08:10:00,
2013-11-07 03:25:00,56.0,54.0,29.95,SSE,155,1.0,2.0,94,0.00,,,0.00,weatherlink.com 1.10,2013-11-07 08:25:00,
2013-11-07 03:40:00,56.0,54.0,29.94,NW,304,0.0,2.0,94,0.00,,,0.00,weatherlink.com 1.10,2013-11-07 08:40:00,
2013-11-07 03:55:00,56.1,55.0,29.93,SSE,159,0.0,1.0,95,0.00,,,0.00,weatherlink.com 1.10,2013-11-07 08:55:00,
2013-11-07 04:10:00,56.1,55.0,29.93,SSE,160,1.0,1.0,95,0.00,,,0.00,weatherlink.com 1.10,2013-11-07 09:10:00,
2013-11-07 04:25:00,56.1,55.0,29.92,SE,135,0.0,1.0,96,0.00,,,0.00,weatherlink.com 1.10,2013-11-07 09:25:00,
2013-11-07 04:40:00,56.1,55.0,29.91,ESE,114,0.0,2.0,96,0.00,,,0.00,weatherlink.com 1.10,2013-11-07 09:40:00,
2013-11-07 04:55:00,56.2,55.0,29.90,SSE,165,1.0,2.0,97,0.00,,,0.00,weatherlink.com 1.10,2013-11-07 09:55:00,
2013-11-07 05:10:00,56.2,55.0,29.89,South,171,0.0,2.0,97,0.00,,,0.00,weatherlink.com 1.10,2013-11-07 10:10:00,
2013-11-07 05:25:00,56.3,56.0,29.88,SSE,167,0.0,1.0,97,0.00,,,0.00,weatherlink.com 1.10,2013-11-07 10:25:00,
2013-11-07 05:40:00,56.3,56.0,29.87,SSE,153,0.0,1.0,97,0.00,,,0.00,weatherlink.com 1.10,2013-11-07 10:40:00,
2013-11-07 05:55:00,56.7,56.0,29.86,SSE,150,0.0,3.0,97,0.00,,,0.00,weatherlink.com 1.10,2013-11-07 10:55:00,
2013-11-07 06:10:00,56.7,56.0,29.85,SE,131,1.0,5.0,97,0.00,,,0.00,weatherlink.com 1.10,2013-11-07 11:10:00,
2013-11-07 06:25:00,57.2,56.0,29.85,NE,49,0.0,3.0,97,0.00,,,0.00,weatherlink.com 1.10,2013-11-07 11:25:00,
2013-11-07 06:40:00,57.7,57.0,29.85,SSE,157,0.0,2.0,96,0.00,,,0.00,weatherlink.com 1.10,2013-11-07 11:40:00,
2013-11-07 06:55:00,58.1,57.0,29.85,South,169,0.0,4.0,95,0.00,,,0.00,weatherlink.com 1.10,2013-11-07 11:55:00,
2013-11-07 07:10:00,58.4,57.0,29.84,SSE,162,0.0,3.0,94,0.00,,,0.00,weatherlink.com 1.10,2013-11-07 12:10:00,
2013-11-07 07:25:00,58.6,57.0,29.84,SSE,147,1.0,2.0,94,0.00,,,0.00,weatherlink.com 1.10,2013-11-07 12:25:00,
2013-11-07 07:40:00,59.0,57.0,29.84,SSE,163,0.0,4.0,93,0.00,,,0.00,weatherlink.com 1.10,2013-11-07 12:40:00,
2013-11-07 07:55:00,59.2,57.0,29.84,South,176,0.0,2.0,93,0.00,,,0.00,weatherlink.com 1.10,2013-11-07 12:55:00,
2013-11-07 08:25:00,59.9,57.0,29.83,SE,133,1.0,1.0,91,0.00,,,0.00,weatherlink.com 1.10,2013-11-07 13:25:00,
2013-11-07 08:40:00,60.4,57.0,29.83,ESE,103,0.0,2.0,89,0.00,,,0.00,weatherlink.com 1.10,2013-11-07 13:40:00,
2013-11-07 08:55:00,60.8,57.0,29.83,SSE,156,1.0,3.0,88,0.00,,,0.00,weatherlink.com 1.10,2013-11-07 13:55:00,
2013-11-07 09:10:00,61.1,57.0,29.82,SSE,160,1.0,3.0,86,0.00,,,0.00,weatherlink.com 1.10,2013-11-07 14:10:00,
2013-11-07 09:25:00,61.5,57.0,29.82,SE,133,1.0,6.0,85,0.00,,,0.00,weatherlink.com 1.10,2013-11-07 14:25:00,
2013-11-07 09:41:00,61.8,57.0,29.80,East,89,0.0,3.0,83,0.00,,,0.00,weatherlink.com 1.10,2013-11-07 14:41:00,
2013-11-07 09:56:00,61.7,56.0,29.80,SSE,150,0.0,5.0,82,0.00,,,0.00,weatherlink.com 1.10,2013-11-07 14:56:00,
2013-11-07 10:11:00,61.4,56.0,29.80,SE,143,1.0,4.0,82,0.00,,,0.00,weatherlink.com 1.10,2013-11-07 15:11:00,
2013-11-07 10:26:00,60.7,56.0,29.80,SE,146,1.0,2.0,85,0.00,,,0.00,weatherlink.com 1.10,2013-11-07 15:26:00,
2013-11-07 10:41:00,59.6,56.0,29.79,SSE,155,0.0,3.0,89,0.00,,,0.00,weatherlink.com 1.10,2013-11-07 15:41:00,
2013-11-07 10:56:00,59.1,56.0,29.78,SSE,163,0.0,1.0,90,0.00,,,0.00,weatherlink.com 1.10,2013-11-07 15:56:00,
2013-11-07 11:11:00,58.8,56.0,29.77,SSE,160,0.0,2.0,91,0.00,,,0.00,weatherlink.com 1.10,2013-11-07 16:11:00,
2013-11-07 11:26:00,58.4,56.0,29.76,East,82,1.0,1.0,92,0.01,,,0.01,weatherlink.com 1.10,2013-11-07 16:26:00,
2013-11-07 11:41:00,57.9,56.0,29.75,SSE,159,0.0,1.0,93,0.02,,,0.02,weatherlink.com 1.10,2013-11-07 16:41:00,
2013-11-07 11:56:00,57.5,56.0,29.75,SSE,150,0.0,1.0,94,0.05,,,0.05,weatherlink.com 1.10,2013-11-07 16:56:00,
2013-11-07 12:11:00,57.3,56.0,29.74,South,188,0.0,1.0,95,0.07,,,0.07,weatherlink.com 1.10,2013-11-07 17:11:00,
2013-11-07 12:26:00,57.1,56.0,29.72,SE,146,0.0,1.0,95,0.09,,,0.10,weatherlink.com 1.10,2013-11-07 17:26:00,
2013-11-07 12:41:00,57.0,56.0,29.70,SSE,152,0.0,1.0,96,0.10,,,0.12,weatherlink.com 1.10,2013-11-07 17:41:00,
2013-11-07 12:56:00,57.5,56.0,29.73,SSE,152,0.0,1.0,96,0.06,,,0.12,weatherlink.com 1.10,2013-11-07 17:56:00,
2013-11-07 13:11:00,57.6,56.0,29.72,SSE,155,0.0,1.0,95,0.05,,,0.12,weatherlink.com 1.10,2013-11-07 18:11:00,
2013-11-07 13:26:00,57.7,56.0,29.72,SSE,155,0.0,0.0,95,0.02,,,0.12,weatherlink.com 1.10,2013-11-07 18:26:00,
2013-11-07 13:41:00,57.5,56.0,29.72,SSW,197,0.0,1.0,95,0.00,,,0.12,weatherlink.com 1.10,2013-11-07 18:41:00,
2013-11-07 13:56:00,57.1,56.0,29.73,West,276,0.0,2.0,95,0.05,,,0.17,weatherlink.com 1.10,2013-11-07 18:56:00,
2013-11-07 14:11:00,55.9,53.0,29.74,NNE,18,0.0,6.0,89,0.07,,,0.19,weatherlink.com 1.10,2013-11-07 19:11:00,
2013-11-07 14:26:00,54.4,52.0,29.75,NNW,340,2.0,4.0,92,0.08,,,0.20,weatherlink.com 1.10,2013-11-07 19:26:00,
2013-11-07 14:41:00,52.9,51.0,29.74,NNW,346,1.0,2.0,93,0.08,,,0.20,weatherlink.com 1.10,2013-11-07 19:41:00,
2013-11-07 14:56:00,51.9,50.0,29.74,NNE,32,1.0,2.0,94,0.02,,,0.20,weatherlink.com 1.10,2013-11-07 19:56:00,
2013-11-07 15:11:00,51.2,50.0,29.74,NNE,13,0.0,2.0,95,0.02,,,0.21,weatherlink.com 1.10,2013-11-07 20:11:00,
2013-11-07 15:26:00,50.8,49.0,29.74,North,350,2.0,3.0,94,0.01,,,0.21,weatherlink.com 1.10,2013-11-07 20:26:00,
2013-11-07 15:41:00,50.3,49.0,29.75,North,356,0.0,3.0,94,0.02,,,0.22,weatherlink.com 1.10,2013-11-07 20:41:00,
2013-11-07 15:56:00,49.7,48.0,29.74,North,11,3.0,7.0,94,0.02,,,0.22,weatherlink.com 1.10,2013-11-07 20:56:00,
2013-11-07 16:11:00,49.0,47.0,29.76,North,352,2.0,5.0,93,0.02,,,0.23,weatherlink.com 1.10,2013-11-07 21:11:00,
2013-11-07 16:26:00,48.0,46.0,29.77,NNE,27,2.0,5.0,93,0.02,,,0.23,weatherlink.com 1.10,2013-11-07 21:26:00,
2013-11-07 16:41:00,47.3,45.0,29.77,NW,325,0.0,5.0,93,0.01,,,0.23,weatherlink.com 1.10,2013-11-07 21:41:00,
2013-11-07 16:56:00,46.7,44.0,29.78,NNW,344,1.0,4.0,91,0.00,,,0.23,weatherlink.com 1.10,2013-11-07 21:56:00,
2013-11-07 17:11:00,46.2,44.0,29.80,North,8,1.0,3.0,90,0.00,,,0.23,weatherlink.com 1.10,2013-11-07 22:11:00,
2013-11-07 17:26:00,46.0,43.0,29.80,NW,318,0.0,3.0,89,0.00,,,0.23,weatherlink.com 1.10,2013-11-07 22:26:00,
2013-11-07 17:42:00,45.5,42.0,29.81,NNW,345,1.0,4.0,88,0.00,,,0.23,weatherlink.com 1.10,2013-11-07 22:42:00,
2013-11-07 17:57:00,44.9,42.0,29.82,NNW,338,0.0,2.0,89,0.00,,,0.23,weatherlink.com 1.10,2013-11-07 22:57:00,
2013-11-07 18:12:00,44.5,42.0,29.82,NNW,346,0.0,3.0,89,0.00,,,0.23,weatherlink.com 1.10,2013-11-07 23:12:00,
2013-11-07 18:27:00,44.1,41.0,29.83,ESE,117,0.0,1.0,90,0.00,,,0.23,weatherlink.com 1.10,2013-11-07 23:27:00,
2013-11-07 18:42:00,43.8,41.0,29.83,WNW,300,0.0,1.0,90,0.00,,,0.23,weatherlink.com 1.10,2013-11-07 23:42:00,
2013-11-07 18:57:00,43.3,41.0,29.83,WNW,300,0.0,0.0,91,0.00,,,0.23,weatherlink.com 1.10,2013-11-07 23:57:00,
2013-11-07 19:12:00,43.0,41.0,29.84,WNW,300,0.0,1.0,91,0.00,,,0.23,weatherlink.com 1.10,2013-11-08 00:12:00,
2013-11-07 19:27:00,42.9,41.0,29.84,NW,326,0.0,1.0,91,0.00,,,0.23,weatherlink.com 1.10,2013-11-08 00:27:00,
2013-11-07 19:42:00,43.2,41.0,29.85,NNW,330,1.0,1.0,91,0.00,,,0.23,weatherlink.com 1.10,2013-11-08 00:42:00,
2013-11-07 19:57:00,43.5,41.0,29.85,North,1,1.0,6.0,89,0.00,,,0.23,weatherlink.com 1.10,2013-11-08 00:57:00,
2013-11-07 20:12:00,43.6,41.0,29.86,WNW,288,0.0,1.0,89,0.00,,,0.23,weatherlink.com 1.10,2013-11-08 01:12:00,
2013-11-07 20:27:00,43.5,41.0,29.86,NW,307,0.0,3.0,89,0.00,,,0.23,weatherlink.com 1.10,2013-11-08 01:27:00,
2013-11-07 20:42:00,43.4,40.0,29.87,ENE,58,1.0,2.0,89,0.00,,,0.23,weatherlink.com 1.10,2013-11-08 01:42:00,
2013-11-07 20:57:00,43.2,39.0,29.87,North,359,1.0,4.0,85,0.00,,,0.23,weatherlink.com 1.10,2013-11-08 01:57:00,
2013-11-07 21:12:00,42.4,37.0,29.87,North,10,0.0,2.0,80,0.00,,,0.23,weatherlink.com 1.10,2013-11-08 02:12:00,
2013-11-07 21:27:00,41.8,36.0,29.88,ESE,118,0.0,2.0,80,0.00,,,0.23,weatherlink.com 1.10,2013-11-08 02:27:00,
2013-11-07 21:42:00,41.0,36.0,29.87,NNW,336,0.0,2.0,81,0.00,,,0.23,weatherlink.com 1.10,2013-11-08 02:42:00,
2013-11-07 21:57:00,40.5,34.0,29.87,NW,308,0.0,1.0,78,0.00,,,0.23,weatherlink.com 1.10,2013-11-08 02:57:00,
2013-11-07 22:12:00,39.7,35.0,29.87,WNW,290,0.0,1.0,82,0.00,,,0.23,weatherlink.com 1.10,2013-11-08 03:12:00,
2013-11-07 22:27:00,38.3,34.0,29.87,West,268,0.0,1.0,85,0.00,,,0.23,weatherlink.com 1.10,2013-11-08 03:27:00,
2013-11-07 22:42:00,38.0,33.0,29.87,West,269,0.0,0.0,83,0.00,,,0.23,weatherlink.com 1.10,2013-11-08 03:42:00,
2013-11-07 22:57:00,37.5,34.0,29.87,West,269,0.0,0.0,87,0.00,,,0.23,weatherlink.com 1.10,2013-11-08 03:57:00,
2013-11-07 23:12:00,36.4,34.0,29.87,West,269,0.0,1.0,90,0.00,,,0.23,weatherlink.com 1.10,2013-11-08 04:12:00,
2013-11-07 23:27:00,35.6,33.0,29.87,West,269,0.0,1.0,91,0.00,,,0.23,weatherlink.com 1.10,2013-11-08 04:27:00,
2013-11-07 23:42:00,34.9,33.0,29.88,West,273,0.0,0.0,92,0.00,,,0.23,weatherlink.com 1.10,2013-11-08 04:42:00,
2013-11-07 23:57:00,34.7,33.0,29.88,West,273,0.0,0.0,92,0.00,,,0.23,weatherlink.com 1.10,2013-11-08 04:57:00,